Kota Kinabalu, Malaysia
Current Conditions -  °F | °C
As of 8:30 PM on Monday 24 Nov 2014 (Local Time) from WBKK Reporting Station
Broken Clouds Broken Clouds  
Wind Chill: 82°   Ceiling: 27000
Heat Index: 92°   Visibility: 6mi
Dew Point: 79°   Wind: 5mph
Humidity: 89%   Direction: 120°ESE
Pressure: 29.77"   Gusts: NA
Location:  5.97°N, 116.07°E
Report Text: WBKK 241230Z 12004KT 9999 FEW014 SCT140 BKN270 28/26 Q1008 NOSIG
Loading
Personal Weather Stations






























Interactive Weather Map New forecast layout! Learn more

10-Day Weather Forecast

Advertisements
Track Severe Weather on mobile